Aérodrome :
LOGIN :

S'inscrire | Disclaimer

   EN    FR    IT 

 










Légende :    VFR   VFR Marginal   IFR   IFR Intensif   IFR Très Intensif
Visi : 
Plafond : 
>= 8 km
>= 3000ft
5 à 8 km
1000 à 3000 ft
1500m à 5 km
500 à 1000 ft
800 à 1500m
200 à 500 ft
< 800m
< 200 ft
Symboles :   Orages  Brouillard  Fortes neiges  Fortes précipitations  Vent > 20 kt
SIGMETs :   Divers  Orages  Givrage  Turbulence  Onde Orograph.  Cendres Volcan.







- Altitude de l'aérodrome : 935 ft


EBFS - Florennes

DERNIER METAR :
  • 272355Z AUTO 23004KT 9999 NCD 13/10 Q1011 BLU

METARs EXPIRÉS :
  • 272325Z AUTO 23004KT 9999 NCD 13/10 Q1011 BLU
  • 272255Z AUTO 24003KT 9999 NCD 13/10 Q1011 BLU
  • 272225Z AUTO 26004KT 9999 SCT060/// 14/10 Q1011 BLU
  • 272155Z AUTO 25005KT 9999 BKN060/// 14/10 Q1011 BLU
  • 272125Z AUTO 26007KT 9999 NCD 14/10 Q1011 BLU

TAF TAF EBFS
Valide du 27 à 19h jusqu'au 28 à 07h UTC


271541Z 2719/2807 24008KT 9999 FEW030 SCT050 BKN140
BECMG 2802/2804 FEW010 BKN020
TEMPO 2804/2807 SCT010 SCT020 BKN200
Pas de NOTAMs connus pour ce terrain.



MET'MAP, la Météo Aéronautique d'un coup d'oeil ! - Copyright ORBIFLY Décembre 2007 - Disclaimer

ORBIFLY MET'MAP TEAM :

Programmation & Développement : Alexandra Zaïnal
Conception & Développement : Baudouin d'Aumeries
Co-Programmation & Développement : Marc-Olivier Méhu
Soutien technique & logistique : Manuel Goepfert

Contact : metmap@orbifly.com




SOURCES & CREDITS :

   NOAA